Terminal Aerodrome Forecast
Issued by NWS Amarillo, TX

Home | Current Version | Previous Version | Text Only | Print | Product List | Glossary On
Versions: 1 2 3 4 5 6 7 8 9 10 11 12 13
000
FTUS44 KAMA 240807 AAB
TAFGUY
TAF AMD
KGUY 240807Z 2408/2506 26008KT P6SM VCTS FEW080CB SCT100
     FM241300 30008KT P6SM SCT150
     FM250000 16009KT P6SM BKN100 PROB30 2500/2506 P6SM -TSRA
      BKN100CB=

USA.gov is the U.S. government's official web portal to all federal, state and local government web resources and services.